sensor_id;sensor_type;location;lat;lon;timestamp;P1;durP1;ratioP1;P2;durP2;ratioP2
12707;SDS011;6418;50.824;4.718;2023-04-09T00:00:42;32.83;;;23.00;;
12707;SDS011;6418;50.824;4.718;2023-04-09T00:03:10;36.00;;;24.33;;
12707;SDS011;6418;50.824;4.718;2023-04-09T00:05:37;36.20;;;24.33;;
12707;SDS011;6418;50.824;4.718;2023-04-09T00:08:06;34.27;;;22.30;;
12707;SDS011;6418;50.824;4.718;2023-04-09T00:10:33;33.23;;;22.93;;
12707;SDS011;6418;50.824;4.718;2023-04-09T00:13:00;35.20;;;24.07;;
12707;SDS011;6418;50.824;4.718;2023-04-09T00:15:27;36.23;;;24.77;;
12707;SDS011;6418;50.824;4.718;2023-04-09T00:17:55;36.80;;;24.93;;
12707;SDS011;6418;50.824;4.718;2023-04-09T00:20:22;39.13;;;26.47;;
12707;SDS011;6418;50.824;4.718;2023-04-09T00:22:49;37.77;;;23.67;;
12707;SDS011;6418;50.824;4.718;2023-04-09T00:25:18;35.80;;;23.97;;
12707;SDS011;6418;50.824;4.718;2023-04-09T00:27:45;37.43;;;24.43;;
12707;SDS011;6418;50.824;4.718;2023-04-09T00:30:12;38.47;;;23.10;;
12707;SDS011;6418;50.824;4.718;2023-04-09T00:32:39;37.00;;;24.00;;
12707;SDS011;6418;50.824;4.718;2023-04-09T00:35:06;40.37;;;26.43;;
12707;SDS011;6418;50.824;4.718;2023-04-09T00:37:33;41.17;;;27.80;;
12707;SDS011;6418;50.824;4.718;2023-04-09T00:40:00;40.10;;;26.83;;
12707;SDS011;6418;50.824;4.718;2023-04-09T00:42:31;38.67;;;24.90;;
12707;SDS011;6418;50.824;4.718;2023-04-09T00:44:58;40.50;;;26.60;;
12707;SDS011;6418;50.824;4.718;2023-04-09T00:47:25;45.73;;;26.67;;
12707;SDS011;6418;50.824;4.718;2023-04-09T00:49:53;45.73;;;28.83;;
12707;SDS011;6418;50.824;4.718;2023-04-09T00:52:20;42.20;;;27.60;;
12707;SDS011;6418;50.824;4.718;2023-04-09T00:54:48;43.93;;;28.17;;
12707;SDS011;6418;50.824;4.718;2023-04-09T00:57:16;43.57;;;27.53;;
12707;SDS011;6418;50.824;4.718;2023-04-09T00:59:44;45.30;;;28.70;;
12707;SDS011;6418;50.824;4.718;2023-04-09T01:02:11;43.00;;;28.03;;
12707;SDS011;6418;50.824;4.718;2023-04-09T01:04:39;42.73;;;28.33;;
12707;SDS011;6418;50.824;4.718;2023-04-09T01:07:09;46.17;;;29.00;;
12707;SDS011;6418;50.824;4.718;2023-04-09T01:09:40;48.13;;;29.97;;
12707;SDS011;6418;50.824;4.718;2023-04-09T01:12:11;45.57;;;29.20;;
12707;SDS011;6418;50.824;4.718;2023-04-09T01:14:47;46.20;;;30.07;;
12707;SDS011;6418;50.824;4.718;2023-04-09T01:17:21;44.90;;;28.80;;
12707;SDS011;6418;50.824;4.718;2023-04-09T01:19:53;45.00;;;28.67;;
12707;SDS011;6418;50.824;4.718;2023-04-09T01:22:30;45.60;;;27.93;;
12707;SDS011;6418;50.824;4.718;2023-04-09T01:25:07;47.77;;;29.03;;
12707;SDS011;6418;50.824;4.718;2023-04-09T01:27:44;49.30;;;29.73;;
12707;SDS011;6418;50.824;4.718;2023-04-09T01:30:21;46.07;;;28.43;;
12707;SDS011;6418;50.824;4.718;2023-04-09T01:32:48;44.37;;;28.07;;
12707;SDS011;6418;50.824;4.718;2023-04-09T01:35:17;42.37;;;26.93;;
12707;SDS011;6418;50.824;4.718;2023-04-09T01:37:45;45.80;;;28.20;;
12707;SDS011;6418;50.824;4.718;2023-04-09T01:40:12;44.23;;;29.43;;
12707;SDS011;6418;50.824;4.718;2023-04-09T01:42:40;48.57;;;30.43;;
12707;SDS011;6418;50.824;4.718;2023-04-09T01:45:08;49.83;;;30.60;;
12707;SDS011;6418;50.824;4.718;2023-04-09T01:47:38;46.60;;;30.13;;
12707;SDS011;6418;50.824;4.718;2023-04-09T01:50:06;50.47;;;32.03;;
12707;SDS011;6418;50.824;4.718;2023-04-09T01:52:33;47.47;;;28.93;;
12707;SDS011;6418;50.824;4.718;2023-04-09T01:55:01;48.73;;;29.77;;
12707;SDS011;6418;50.824;4.718;2023-04-09T01:57:28;48.70;;;30.13;;
12707;SDS011;6418;50.824;4.718;2023-04-09T01:59:56;53.50;;;30.67;;
12707;SDS011;6418;50.824;4.718;2023-04-09T02:02:24;53.90;;;32.13;;
12707;SDS011;6418;50.824;4.718;2023-04-09T02:04:54;50.83;;;31.67;;
12707;SDS011;6418;50.824;4.718;2023-04-09T02:07:27;54.43;;;31.73;;
12707;SDS011;6418;50.824;4.718;2023-04-09T02:10:04;54.90;;;31.87;;
12707;SDS011;6418;50.824;4.718;2023-04-09T02:12:32;54.97;;;33.13;;
12707;SDS011;6418;50.824;4.718;2023-04-09T02:15:02;60.80;;;36.10;;
12707;SDS011;6418;50.824;4.718;2023-04-09T02:17:31;60.40;;;35.43;;
12707;SDS011;6418;50.824;4.718;2023-04-09T02:19:59;67.50;;;37.83;;
12707;SDS011;6418;50.824;4.718;2023-04-09T02:22:26;69.10;;;38.03;;
12707;SDS011;6418;50.824;4.718;2023-04-09T02:24:54;67.40;;;38.80;;
12707;SDS011;6418;50.824;4.718;2023-04-09T02:27:20;75.60;;;40.07;;
12707;SDS011;6418;50.824;4.718;2023-04-09T02:29:47;67.40;;;40.00;;
12707;SDS011;6418;50.824;4.718;2023-04-09T02:32:14;73.70;;;40.20;;
12707;SDS011;6418;50.824;4.718;2023-04-09T02:34:41;69.33;;;39.37;;
12707;SDS011;6418;50.824;4.718;2023-04-09T02:37:09;75.03;;;40.47;;
12707;SDS011;6418;50.824;4.718;2023-04-09T02:39:36;75.33;;;42.07;;
12707;SDS011;6418;50.824;4.718;2023-04-09T02:42:03;77.43;;;42.53;;
12707;SDS011;6418;50.824;4.718;2023-04-09T02:44:31;77.10;;;42.17;;
12707;SDS011;6418;50.824;4.718;2023-04-09T02:46:59;77.37;;;42.47;;
12707;SDS011;6418;50.824;4.718;2023-04-09T02:49:26;78.77;;;41.43;;
12707;SDS011;6418;50.824;4.718;2023-04-09T02:51:52;78.27;;;41.87;;
12707;SDS011;6418;50.824;4.718;2023-04-09T02:54:21;74.43;;;41.33;;
12707;SDS011;6418;50.824;4.718;2023-04-09T02:56:48;75.43;;;41.53;;
12707;SDS011;6418;50.824;4.718;2023-04-09T02:59:17;79.17;;;42.27;;
12707;SDS011;6418;50.824;4.718;2023-04-09T03:01:44;73.93;;;39.73;;
12707;SDS011;6418;50.824;4.718;2023-04-09T03:04:11;76.40;;;41.27;;
12707;SDS011;6418;50.824;4.718;2023-04-09T03:06:38;77.00;;;40.37;;
12707;SDS011;6418;50.824;4.718;2023-04-09T03:09:05;67.67;;;36.50;;
12707;SDS011;6418;50.824;4.718;2023-04-09T03:11:33;61.57;;;34.60;;
12707;SDS011;6418;50.824;4.718;2023-04-09T03:14:00;70.97;;;39.23;;
12707;SDS011;6418;50.824;4.718;2023-04-09T03:16:27;65.53;;;35.83;;
12707;SDS011;6418;50.824;4.718;2023-04-09T03:18:54;68.57;;;35.30;;
12707;SDS011;6418;50.824;4.718;2023-04-09T03:21:21;66.53;;;37.50;;
12707;SDS011;6418;50.824;4.718;2023-04-09T03:23:47;58.60;;;33.13;;
12707;SDS011;6418;50.824;4.718;2023-04-09T03:26:14;63.03;;;34.47;;
12707;SDS011;6418;50.824;4.718;2023-04-09T03:28:43;60.00;;;34.00;;
12707;SDS011;6418;50.824;4.718;2023-04-09T03:31:10;59.13;;;32.77;;
12707;SDS011;6418;50.824;4.718;2023-04-09T03:33:37;63.97;;;34.30;;
12707;SDS011;6418;50.824;4.718;2023-04-09T03:36:05;65.90;;;35.60;;
12707;SDS011;6418;50.824;4.718;2023-04-09T03:38:31;65.43;;;36.57;;
12707;SDS011;6418;50.824;4.718;2023-04-09T03:40:58;64.90;;;36.03;;
12707;SDS011;6418;50.824;4.718;2023-04-09T03:43:25;67.63;;;37.57;;
12707;SDS011;6418;50.824;4.718;2023-04-09T03:45:54;79.87;;;42.83;;
12707;SDS011;6418;50.824;4.718;2023-04-09T03:48:20;85.97;;;44.87;;
12707;SDS011;6418;50.824;4.718;2023-04-09T03:50:47;92.40;;;47.00;;
12707;SDS011;6418;50.824;4.718;2023-04-09T03:53:14;93.47;;;47.80;;
12707;SDS011;6418;50.824;4.718;2023-04-09T03:55:41;98.93;;;50.00;;
12707;SDS011;6418;50.824;4.718;2023-04-09T03:58:19;118.13;;;54.60;;
12707;SDS011;6418;50.824;4.718;2023-04-09T04:01:06;113.30;;;54.17;;
12707;SDS011;6418;50.824;4.718;2023-04-09T04:03:33;129.90;;;56.67;;
12707;SDS011;6418;50.824;4.718;2023-04-09T04:06:00;121.27;;;57.43;;
12707;SDS011;6418;50.824;4.718;2023-04-09T04:08:28;129.20;;;58.47;;
12707;SDS011;6418;50.824;4.718;2023-04-09T04:10:55;128.37;;;59.83;;
12707;SDS011;6418;50.824;4.718;2023-04-09T04:13:27;128.60;;;58.53;;
12707;SDS011;6418;50.824;4.718;2023-04-09T04:15:54;141.93;;;60.77;;
12707;SDS011;6418;50.824;4.718;2023-04-09T04:18:23;138.50;;;59.10;;
12707;SDS011;6418;50.824;4.718;2023-04-09T04:20:50;147.33;;;62.13;;
12707;SDS011;6418;50.824;4.718;2023-04-09T04:23:17;149.70;;;59.60;;
12707;SDS011;6418;50.824;4.718;2023-04-09T04:25:43;148.20;;;61.77;;
12707;SDS011;6418;50.824;4.718;2023-04-09T04:28:10;151.40;;;59.00;;
12707;SDS011;6418;50.824;4.718;2023-04-09T04:30:39;141.90;;;58.90;;
12707;SDS011;6418;50.824;4.718;2023-04-09T04:33:07;157.23;;;59.70;;
12707;SDS011;6418;50.824;4.718;2023-04-09T04:35:35;130.97;;;57.50;;
12707;SDS011;6418;50.824;4.718;2023-04-09T04:38:02;139.40;;;58.10;;
12707;SDS011;6418;50.824;4.718;2023-04-09T04:40:29;133.67;;;56.83;;
12707;SDS011;6418;50.824;4.718;2023-04-09T04:42:56;133.30;;;55.80;;
12707;SDS011;6418;50.824;4.718;2023-04-09T04:45:23;137.93;;;57.20;;
12707;SDS011;6418;50.824;4.718;2023-04-09T04:47:49;133.90;;;60.73;;
12707;SDS011;6418;50.824;4.718;2023-04-09T04:50:16;152.30;;;59.10;;
12707;SDS011;6418;50.824;4.718;2023-04-09T04:52:45;168.90;;;60.93;;
12707;SDS011;6418;50.824;4.718;2023-04-09T04:55:12;169.83;;;65.10;;
12707;SDS011;6418;50.824;4.718;2023-04-09T04:57:39;151.67;;;60.77;;
12707;SDS011;6418;50.824;4.718;2023-04-09T05:00:06;132.47;;;58.73;;
12707;SDS011;6418;50.824;4.718;2023-04-09T05:02:34;140.40;;;58.23;;
12707;SDS011;6418;50.824;4.718;2023-04-09T05:05:01;143.83;;;59.30;;
12707;SDS011;6418;50.824;4.718;2023-04-09T05:07:27;137.63;;;57.13;;
12707;SDS011;6418;50.824;4.718;2023-04-09T05:09:56;120.37;;;52.90;;
12707;SDS011;6418;50.824;4.718;2023-04-09T05:12:23;121.97;;;53.93;;
12707;SDS011;6418;50.824;4.718;2023-04-09T05:14:50;130.00;;;56.23;;
12707;SDS011;6418;50.824;4.718;2023-04-09T05:17:17;132.23;;;58.77;;
12707;SDS011;6418;50.824;4.718;2023-04-09T05:19:49;133.13;;;59.40;;
12707;SDS011;6418;50.824;4.718;2023-04-09T05:22:16;139.13;;;57.83;;
12707;SDS011;6418;50.824;4.718;2023-04-09T05:24:43;154.57;;;63.07;;
12707;SDS011;6418;50.824;4.718;2023-04-09T05:27:11;153.47;;;65.93;;
12707;SDS011;6418;50.824;4.718;2023-04-09T05:29:38;138.90;;;61.47;;
12707;SDS011;6418;50.824;4.718;2023-04-09T05:32:05;152.53;;;63.27;;
12707;SDS011;6418;50.824;4.718;2023-04-09T05:34:33;148.13;;;64.33;;
12707;SDS011;6418;50.824;4.718;2023-04-09T05:37:00;148.20;;;63.97;;
12707;SDS011;6418;50.824;4.718;2023-04-09T05:39:27;146.27;;;62.77;;
12707;SDS011;6418;50.824;4.718;2023-04-09T05:41:54;150.50;;;63.33;;
12707;SDS011;6418;50.824;4.718;2023-04-09T05:44:22;152.10;;;62.07;;
12707;SDS011;6418;50.824;4.718;2023-04-09T05:46:49;163.37;;;64.53;;
12707;SDS011;6418;50.824;4.718;2023-04-09T05:49:16;147.70;;;64.10;;
12707;SDS011;6418;50.824;4.718;2023-04-09T05:51:43;150.03;;;64.07;;
12707;SDS011;6418;50.824;4.718;2023-04-09T05:54:10;147.40;;;65.57;;
12707;SDS011;6418;50.824;4.718;2023-04-09T05:56:37;154.57;;;65.43;;
12707;SDS011;6418;50.824;4.718;2023-04-09T05:59:04;145.97;;;64.37;;
12707;SDS011;6418;50.824;4.718;2023-04-09T06:01:33;153.07;;;65.23;;
12707;SDS011;6418;50.824;4.718;2023-04-09T06:04:00;156.30;;;65.93;;
12707;SDS011;6418;50.824;4.718;2023-04-09T06:06:27;150.20;;;66.90;;
12707;SDS011;6418;50.824;4.718;2023-04-09T06:08:54;165.10;;;73.50;;
12707;SDS011;6418;50.824;4.718;2023-04-09T06:11:20;157.10;;;69.57;;
12707;SDS011;6418;50.824;4.718;2023-04-09T06:13:47;140.97;;;64.60;;
12707;SDS011;6418;50.824;4.718;2023-04-09T06:16:14;142.17;;;64.23;;
12707;SDS011;6418;50.824;4.718;2023-04-09T06:18:42;148.77;;;65.67;;
12707;SDS011;6418;50.824;4.718;2023-04-09T06:21:10;143.90;;;65.47;;
12707;SDS011;6418;50.824;4.718;2023-04-09T06:23:38;145.60;;;67.43;;
12707;SDS011;6418;50.824;4.718;2023-04-09T06:26:05;136.33;;;67.13;;
12707;SDS011;6418;50.824;4.718;2023-04-09T06:28:32;141.10;;;65.63;;
12707;SDS011;6418;50.824;4.718;2023-04-09T06:31:00;137.00;;;66.23;;
12707;SDS011;6418;50.824;4.718;2023-04-09T06:33:27;141.97;;;66.43;;
12707;SDS011;6418;50.824;4.718;2023-04-09T06:35:55;140.90;;;67.60;;
12707;SDS011;6418;50.824;4.718;2023-04-09T06:38:22;145.03;;;65.47;;
12707;SDS011;6418;50.824;4.718;2023-04-09T06:40:49;124.23;;;62.63;;
12707;SDS011;6418;50.824;4.718;2023-04-09T06:43:17;126.00;;;61.77;;
12707;SDS011;6418;50.824;4.718;2023-04-09T06:45:44;135.10;;;63.30;;
12707;SDS011;6418;50.824;4.718;2023-04-09T06:48:11;123.37;;;63.07;;
12707;SDS011;6418;50.824;4.718;2023-04-09T06:50:38;123.57;;;59.93;;
12707;SDS011;6418;50.824;4.718;2023-04-09T06:53:06;119.30;;;58.63;;
12707;SDS011;6418;50.824;4.718;2023-04-09T06:55:33;118.00;;;59.23;;
12707;SDS011;6418;50.824;4.718;2023-04-09T06:58:00;119.40;;;58.70;;
12707;SDS011;6418;50.824;4.718;2023-04-09T07:00:27;122.37;;;60.13;;
12707;SDS011;6418;50.824;4.718;2023-04-09T07:02:54;116.00;;;58.83;;
12707;SDS011;6418;50.824;4.718;2023-04-09T07:05:21;111.17;;;57.90;;
12707;SDS011;6418;50.824;4.718;2023-04-09T07:07:49;101.77;;;55.00;;
12707;SDS011;6418;50.824;4.718;2023-04-09T07:10:17;105.27;;;56.87;;
12707;SDS011;6418;50.824;4.718;2023-04-09T07:12:44;105.90;;;55.47;;
12707;SDS011;6418;50.824;4.718;2023-04-09T07:15:11;114.57;;;57.30;;
12707;SDS011;6418;50.824;4.718;2023-04-09T07:17:38;102.63;;;54.67;;
12707;SDS011;6418;50.824;4.718;2023-04-09T07:20:05;98.87;;;53.47;;
12707;SDS011;6418;50.824;4.718;2023-04-09T07:22:32;100.20;;;53.93;;
12707;SDS011;6418;50.824;4.718;2023-04-09T07:25:00;100.23;;;53.93;;
12707;SDS011;6418;50.824;4.718;2023-04-09T07:27:31;98.70;;;53.97;;
12707;SDS011;6418;50.824;4.718;2023-04-09T07:29:58;102.27;;;53.23;;
12707;SDS011;6418;50.824;4.718;2023-04-09T07:32:26;90.10;;;51.60;;
12707;SDS011;6418;50.824;4.718;2023-04-09T07:34:53;92.87;;;52.13;;
12707;SDS011;6418;50.824;4.718;2023-04-09T07:37:21;93.30;;;51.17;;
12707;SDS011;6418;50.824;4.718;2023-04-09T07:39:48;94.60;;;51.90;;
12707;SDS011;6418;50.824;4.718;2023-04-09T07:42:15;85.57;;;49.10;;
12707;SDS011;6418;50.824;4.718;2023-04-09T07:44:43;83.67;;;48.60;;
12707;SDS011;6418;50.824;4.718;2023-04-09T07:47:11;82.63;;;49.33;;
12707;SDS011;6418;50.824;4.718;2023-04-09T07:49:38;79.33;;;47.60;;
12707;SDS011;6418;50.824;4.718;2023-04-09T07:52:05;82.13;;;47.03;;
12707;SDS011;6418;50.824;4.718;2023-04-09T07:54:32;73.07;;;44.37;;
12707;SDS011;6418;50.824;4.718;2023-04-09T07:57:00;74.57;;;44.37;;
12707;SDS011;6418;50.824;4.718;2023-04-09T07:59:27;67.47;;;42.13;;
12707;SDS011;6418;50.824;4.718;2023-04-09T08:01:57;71.10;;;42.70;;
12707;SDS011;6418;50.824;4.718;2023-04-09T08:04:24;68.60;;;42.70;;
12707;SDS011;6418;50.824;4.718;2023-04-09T08:06:51;68.17;;;42.20;;
12707;SDS011;6418;50.824;4.718;2023-04-09T08:09:18;63.90;;;39.40;;
12707;SDS011;6418;50.824;4.718;2023-04-09T08:11:45;68.10;;;41.03;;
12707;SDS011;6418;50.824;4.718;2023-04-09T08:14:13;67.97;;;41.67;;
12707;SDS011;6418;50.824;4.718;2023-04-09T08:16:41;62.40;;;38.90;;
12707;SDS011;6418;50.824;4.718;2023-04-09T08:19:10;65.40;;;39.20;;
12707;SDS011;6418;50.824;4.718;2023-04-09T08:21:38;61.33;;;37.83;;
12707;SDS011;6418;50.824;4.718;2023-04-09T08:24:08;56.17;;;36.30;;
12707;SDS011;6418;50.824;4.718;2023-04-09T08:26:36;57.03;;;36.17;;
12707;SDS011;6418;50.824;4.718;2023-04-09T08:29:03;56.60;;;36.23;;
12707;SDS011;6418;50.824;4.718;2023-04-09T08:31:30;59.13;;;36.10;;
12707;SDS011;6418;50.824;4.718;2023-04-09T08:33:57;55.67;;;36.63;;
12707;SDS011;6418;50.824;4.718;2023-04-09T08:36:26;57.63;;;37.27;;
12707;SDS011;6418;50.824;4.718;2023-04-09T08:38:52;56.80;;;34.50;;
12707;SDS011;6418;50.824;4.718;2023-04-09T08:41:21;54.43;;;35.63;;
12707;SDS011;6418;50.824;4.718;2023-04-09T08:43:49;53.97;;;33.03;;
12707;SDS011;6418;50.824;4.718;2023-04-09T08:46:17;52.77;;;33.63;;
12707;SDS011;6418;50.824;4.718;2023-04-09T08:48:45;53.57;;;33.57;;
12707;SDS011;6418;50.824;4.718;2023-04-09T08:51:13;58.07;;;36.60;;
12707;SDS011;6418;50.824;4.718;2023-04-09T08:53:43;53.37;;;34.23;;
12707;SDS011;6418;50.824;4.718;2023-04-09T08:56:12;57.00;;;35.03;;
12707;SDS011;6418;50.824;4.718;2023-04-09T08:58:41;51.23;;;34.37;;
12707;SDS011;6418;50.824;4.718;2023-04-09T09:01:19;52.90;;;33.87;;
12707;SDS011;6418;50.824;4.718;2023-04-09T09:03:52;56.17;;;34.67;;
12707;SDS011;6418;50.824;4.718;2023-04-09T09:06:21;53.97;;;35.33;;
12707;SDS011;6418;50.824;4.718;2023-04-09T09:09:06;53.17;;;34.77;;
12707;SDS011;6418;50.824;4.718;2023-04-09T09:11:34;55.97;;;35.70;;
12707;SDS011;6418;50.824;4.718;2023-04-09T09:14:02;54.47;;;33.17;;
12707;SDS011;6418;50.824;4.718;2023-04-09T09:16:30;54.27;;;33.70;;
12707;SDS011;6418;50.824;4.718;2023-04-09T09:18:59;53.70;;;35.17;;
12707;SDS011;6418;50.824;4.718;2023-04-09T09:21:27;54.70;;;34.67;;
12707;SDS011;6418;50.824;4.718;2023-04-09T09:23:54;47.83;;;32.73;;
12707;SDS011;6418;50.824;4.718;2023-04-09T09:26:23;48.30;;;33.17;;
12707;SDS011;6418;50.824;4.718;2023-04-09T09:28:53;51.40;;;31.60;;
12707;SDS011;6418;50.824;4.718;2023-04-09T09:31:23;52.43;;;32.60;;
12707;SDS011;6418;50.824;4.718;2023-04-09T09:33:50;43.67;;;29.77;;
12707;SDS011;6418;50.824;4.718;2023-04-09T09:36:30;46.23;;;30.37;;
12707;SDS011;6418;50.824;4.718;2023-04-09T09:38:58;45.60;;;30.83;;
12707;SDS011;6418;50.824;4.718;2023-04-09T09:41:30;46.57;;;30.20;;
12707;SDS011;6418;50.824;4.718;2023-04-09T09:43:57;43.30;;;29.90;;
12707;SDS011;6418;50.824;4.718;2023-04-09T09:46:24;45.80;;;30.60;;
12707;SDS011;6418;50.824;4.718;2023-04-09T09:48:52;45.10;;;29.23;;
12707;SDS011;6418;50.824;4.718;2023-04-09T09:51:21;47.73;;;29.53;;
12707;SDS011;6418;50.824;4.718;2023-04-09T09:53:53;43.60;;;28.57;;
12707;SDS011;6418;50.824;4.718;2023-04-09T09:56:22;45.57;;;28.63;;
12707;SDS011;6418;50.824;4.718;2023-04-09T09:59:00;43.40;;;28.10;;
12707;SDS011;6418;50.824;4.718;2023-04-09T10:01:33;41.23;;;27.73;;
12707;SDS011;6418;50.824;4.718;2023-04-09T10:04:00;43.83;;;28.50;;
12707;SDS011;6418;50.824;4.718;2023-04-09T10:06:29;40.73;;;27.90;;
12707;SDS011;6418;50.824;4.718;2023-04-09T10:08:58;42.70;;;28.23;;
12707;SDS011;6418;50.824;4.718;2023-04-09T10:11:30;41.17;;;27.53;;
12707;SDS011;6418;50.824;4.718;2023-04-09T10:14:00;40.57;;;27.37;;
12707;SDS011;6418;50.824;4.718;2023-04-09T10:16:29;39.77;;;27.67;;
12707;SDS011;6418;50.824;4.718;2023-04-09T10:18:57;40.47;;;26.53;;
12707;SDS011;6418;50.824;4.718;2023-04-09T10:21:28;39.57;;;26.23;;
12707;SDS011;6418;50.824;4.718;2023-04-09T10:24:01;40.07;;;26.77;;
12707;SDS011;6418;50.824;4.718;2023-04-09T10:26:31;37.80;;;26.33;;
12707;SDS011;6418;50.824;4.718;2023-04-09T10:29:04;37.43;;;25.57;;
12707;SDS011;6418;50.824;4.718;2023-04-09T10:31:45;36.77;;;25.27;;
12707;SDS011;6418;50.824;4.718;2023-04-09T10:34:14;38.37;;;26.27;;
12707;SDS011;6418;50.824;4.718;2023-04-09T10:36:41;36.30;;;25.77;;
12707;SDS011;6418;50.824;4.718;2023-04-09T10:39:12;39.23;;;26.73;;
12707;SDS011;6418;50.824;4.718;2023-04-09T10:41:39;37.80;;;25.93;;
12707;SDS011;6418;50.824;4.718;2023-04-09T10:44:19;35.70;;;25.00;;
12707;SDS011;6418;50.824;4.718;2023-04-09T10:46:47;38.73;;;25.60;;
12707;SDS011;6418;50.824;4.718;2023-04-09T10:49:15;39.00;;;25.53;;
12707;SDS011;6418;50.824;4.718;2023-04-09T10:54:38;37.10;;;24.87;;
12707;SDS011;6418;50.824;4.718;2023-04-09T10:57:14;32.77;;;23.13;;
12707;SDS011;6418;50.824;4.718;2023-04-09T10:59:44;31.73;;;22.77;;
12707;SDS011;6418;50.824;4.718;2023-04-09T11:02:34;34.77;;;23.67;;
12707;SDS011;6418;50.824;4.718;2023-04-09T11:05:32;34.30;;;22.50;;
12707;SDS011;6418;50.824;4.718;2023-04-09T11:08:03;34.30;;;23.97;;
12707;SDS011;6418;50.824;4.718;2023-04-09T11:10:31;35.07;;;23.50;;
12707;SDS011;6418;50.824;4.718;2023-04-09T11:12:58;34.23;;;24.33;;
12707;SDS011;6418;50.824;4.718;2023-04-09T11:15:27;34.30;;;23.57;;
12707;SDS011;6418;50.824;4.718;2023-04-09T11:17:54;34.57;;;23.93;;
12707;SDS011;6418;50.824;4.718;2023-04-09T11:20:23;33.20;;;23.30;;
12707;SDS011;6418;50.824;4.718;2023-04-09T11:22:51;34.67;;;24.40;;
12707;SDS011;6418;50.824;4.718;2023-04-09T11:25:19;32.00;;;23.00;;
12707;SDS011;6418;50.824;4.718;2023-04-09T11:27:47;33.07;;;24.17;;
12707;SDS011;6418;50.824;4.718;2023-04-09T11:30:14;32.40;;;22.40;;
12707;SDS011;6418;50.824;4.718;2023-04-09T11:32:43;33.53;;;22.90;;
12707;SDS011;6418;50.824;4.718;2023-04-09T11:35:11;32.50;;;22.90;;
12707;SDS011;6418;50.824;4.718;2023-04-09T11:37:40;33.93;;;24.77;;
12707;SDS011;6418;50.824;4.718;2023-04-09T11:40:13;28.47;;;20.97;;
12707;SDS011;6418;50.824;4.718;2023-04-09T11:42:41;28.70;;;20.40;;
12707;SDS011;6418;50.824;4.718;2023-04-09T11:45:09;32.90;;;21.50;;
12707;SDS011;6418;50.824;4.718;2023-04-09T11:47:37;27.97;;;20.43;;
12707;SDS011;6418;50.824;4.718;2023-04-09T11:50:10;30.50;;;20.33;;
12707;SDS011;6418;50.824;4.718;2023-04-09T11:52:38;30.30;;;20.17;;
12707;SDS011;6418;50.824;4.718;2023-04-09T11:55:06;29.63;;;20.37;;
12707;SDS011;6418;50.824;4.718;2023-04-09T11:57:38;27.60;;;19.90;;
12707;SDS011;6418;50.824;4.718;2023-04-09T12:00:07;27.73;;;19.17;;
12707;SDS011;6418;50.824;4.718;2023-04-09T12:02:36;26.73;;;19.33;;
12707;SDS011;6418;50.824;4.718;2023-04-09T12:05:05;27.20;;;19.67;;
12707;SDS011;6418;50.824;4.718;2023-04-09T12:07:35;25.77;;;18.23;;
12707;SDS011;6418;50.824;4.718;2023-04-09T12:10:03;26.63;;;19.37;;
12707;SDS011;6418;50.824;4.718;2023-04-09T12:12:38;25.23;;;18.60;;
12707;SDS011;6418;50.824;4.718;2023-04-09T12:15:09;27.03;;;18.57;;
12707;SDS011;6418;50.824;4.718;2023-04-09T12:17:37;27.23;;;18.50;;
12707;SDS011;6418;50.824;4.718;2023-04-09T12:20:04;26.53;;;17.07;;
12707;SDS011;6418;50.824;4.718;2023-04-09T12:22:35;26.03;;;17.63;;
12707;SDS011;6418;50.824;4.718;2023-04-09T12:25:05;23.93;;;16.67;;
12707;SDS011;6418;50.824;4.718;2023-04-09T12:27:33;23.83;;;16.70;;
12707;SDS011;6418;50.824;4.718;2023-04-09T12:30:00;23.97;;;15.30;;
12707;SDS011;6418;50.824;4.718;2023-04-09T12:32:27;25.70;;;16.70;;
12707;SDS011;6418;50.824;4.718;2023-04-09T12:34:54;22.03;;;15.27;;
12707;SDS011;6418;50.824;4.718;2023-04-09T12:37:21;21.57;;;14.83;;
12707;SDS011;6418;50.824;4.718;2023-04-09T12:39:49;23.53;;;15.50;;
12707;SDS011;6418;50.824;4.718;2023-04-09T12:42:16;25.20;;;17.00;;
12707;SDS011;6418;50.824;4.718;2023-04-09T12:44:43;25.47;;;16.80;;
12707;SDS011;6418;50.824;4.718;2023-04-09T12:47:10;22.10;;;15.67;;
12707;SDS011;6418;50.824;4.718;2023-04-09T12:49:37;21.63;;;14.53;;
12707;SDS011;6418;50.824;4.718;2023-04-09T12:52:04;21.77;;;15.50;;
12707;SDS011;6418;50.824;4.718;2023-04-09T12:54:31;20.30;;;13.00;;
12707;SDS011;6418;50.824;4.718;2023-04-09T12:56:59;20.53;;;15.00;;
12707;SDS011;6418;50.824;4.718;2023-04-09T12:59:26;20.20;;;13.97;;
12707;SDS011;6418;50.824;4.718;2023-04-09T13:01:53;22.23;;;15.10;;
12707;SDS011;6418;50.824;4.718;2023-04-09T13:04:20;21.57;;;14.20;;
12707;SDS011;6418;50.824;4.718;2023-04-09T13:06:47;20.03;;;13.63;;
12707;SDS011;6418;50.824;4.718;2023-04-09T13:09:14;20.43;;;13.20;;
12707;SDS011;6418;50.824;4.718;2023-04-09T13:11:41;18.70;;;12.57;;
12707;SDS011;6418;50.824;4.718;2023-04-09T13:14:09;17.60;;;12.20;;
12707;SDS011;6418;50.824;4.718;2023-04-09T13:16:38;23.10;;;13.30;;
12707;SDS011;6418;50.824;4.718;2023-04-09T13:19:06;18.93;;;11.43;;
12707;SDS011;6418;50.824;4.718;2023-04-09T13:21:34;18.43;;;11.27;;
12707;SDS011;6418;50.824;4.718;2023-04-09T13:24:01;17.83;;;11.23;;
12707;SDS011;6418;50.824;4.718;2023-04-09T13:26:29;17.80;;;11.37;;
12707;SDS011;6418;50.824;4.718;2023-04-09T13:28:56;16.83;;;10.43;;
12707;SDS011;6418;50.824;4.718;2023-04-09T13:31:25;18.70;;;11.43;;
12707;SDS011;6418;50.824;4.718;2023-04-09T13:33:52;17.53;;;10.23;;
12707;SDS011;6418;50.824;4.718;2023-04-09T13:36:18;17.90;;;10.13;;
12707;SDS011;6418;50.824;4.718;2023-04-09T13:38:45;15.73;;;9.73;;
12707;SDS011;6418;50.824;4.718;2023-04-09T13:41:13;33.10;;;11.43;;
12707;SDS011;6418;50.824;4.718;2023-04-09T13:43:40;16.73;;;9.33;;
12707;SDS011;6418;50.824;4.718;2023-04-09T13:46:09;16.07;;;9.73;;
12707;SDS011;6418;50.824;4.718;2023-04-09T13:48:37;19.17;;;9.83;;
12707;SDS011;6418;50.824;4.718;2023-04-09T13:51:04;16.03;;;9.63;;
12707;SDS011;6418;50.824;4.718;2023-04-09T13:53:32;15.03;;;9.30;;
12707;SDS011;6418;50.824;4.718;2023-04-09T13:55:59;15.97;;;9.93;;
12707;SDS011;6418;50.824;4.718;2023-04-09T13:58:25;15.20;;;8.80;;
12707;SDS011;6418;50.824;4.718;2023-04-09T14:00:52;17.23;;;9.33;;
12707;SDS011;6418;50.824;4.718;2023-04-09T14:03:19;14.27;;;8.57;;
12707;SDS011;6418;50.824;4.718;2023-04-09T14:05:48;14.53;;;8.87;;
12707;SDS011;6418;50.824;4.718;2023-04-09T14:08:15;15.20;;;9.37;;
12707;SDS011;6418;50.824;4.718;2023-04-09T14:10:42;13.37;;;8.07;;
12707;SDS011;6418;50.824;4.718;2023-04-09T14:13:09;14.43;;;9.37;;
12707;SDS011;6418;50.824;4.718;2023-04-09T14:15:36;15.10;;;8.50;;
12707;SDS011;6418;50.824;4.718;2023-04-09T14:18:03;15.00;;;8.50;;
12707;SDS011;6418;50.824;4.718;2023-04-09T14:20:30;13.30;;;8.33;;
12707;SDS011;6418;50.824;4.718;2023-04-09T14:22:59;13.20;;;8.03;;
12707;SDS011;6418;50.824;4.718;2023-04-09T14:25:26;14.27;;;8.40;;
12707;SDS011;6418;50.824;4.718;2023-04-09T14:27:53;13.30;;;7.90;;
12707;SDS011;6418;50.824;4.718;2023-04-09T14:30:21;14.17;;;8.40;;
12707;SDS011;6418;50.824;4.718;2023-04-09T14:32:48;13.82;;;7.50;;
12707;SDS011;6418;50.824;4.718;2023-04-09T14:35:15;13.13;;;7.90;;
12707;SDS011;6418;50.824;4.718;2023-04-09T14:37:42;16.50;;;7.50;;
12707;SDS011;6418;50.824;4.718;2023-04-09T14:40:10;12.53;;;7.47;;
12707;SDS011;6418;50.824;4.718;2023-04-09T14:42:38;14.27;;;7.93;;